Dillon, Canada
Current Conditions -  °F | °C
As of 3:00 PM on Monday 20 Oct 2014 (Local Time) from CYVT Reporting Station
Few Clouds Few Clouds  
Wind Chill: 59°   Ceiling: Unl
Heat Index: 59°   Visibility: 15mi
Dew Point: 41°   Wind: 8mph
Humidity: 51%   Direction: 200°SSW
Pressure: 29.53"   Gusts: NA
Location:  55.93°N, 108.94°W
Report Text: CYVT 202100Z 20007KT 15SM FEW230 15/05 A2953 RMK CI1 SLP010 DENSITY ALT 2200FT
Loading
Personal Weather Stations






























Interactive Weather Map
Tropical Storm Tracking
New forecast layout! Learn more

10-Day Weather Forecast

Advertisements
Track Severe Weather on mobile